Time;durP1;ratioP1;P1;durP2;ratioP2;P2;SDS_P1;SDS_P2;PMS_P1;PMS_P2;Temp;Humidity;BMP_temperature;BMP_pressure;BME280_temperature;BME280_humidity;BME280_pressure;Samples;Min_cycle;Max_cycle;Signal;HPM_P1;HPM_P2
2022/06/19 00:00:48;;;;;;;2.63;0.93;;;;;;;16.32;74.17;100371.81;5056142;28;20052;-85
2022/06/19 00:03:33;;;;;;;2.28;0.95;;;;;;;16.41;74.76;100393.25;5041094;28;20055;-85
2022/06/19 00:06:01;;;;;;;6.28;1.73;;;;;;;16.16;75.26;100351.81;5071769;28;20049;-85
2022/06/19 00:08:28;;;;;;;4.03;1.00;;;;;;;15.96;77.96;100385.66;5055816;28;20048;-85
2022/06/19 00:10:56;;;;;;;5.90;1.27;;;;;;;16.51;75.84;100416.31;5048223;28;20103;-85
2022/06/19 00:13:23;;;;;;;5.72;1.20;;;;;;;16.62;75.44;100420.03;5051549;28;20051;-85
2022/06/19 00:15:50;;;;;;;2.60;0.93;;;;;;;16.54;75.31;100391.50;5054420;28;20055;-84
2022/06/19 00:18:17;;;;;;;4.53;1.00;;;;;;;16.68;73.94;100380.81;5054731;28;20049;-85
2022/06/19 00:20:44;;;;;;;4.70;1.10;;;;;;;16.37;75.16;100365.38;5049685;28;20046;-85
2022/06/19 00:23:10;;;;;;;5.43;1.20;;;;;;;15.82;79.08;100365.44;5048745;28;20059;-85
2022/06/19 00:25:38;;;;;;;2.63;1.02;;;;;;;16.43;77.99;100404.56;5055995;28;20471;-85
2022/06/19 00:28:06;;;;;;;4.40;1.10;;;;;;;16.12;79.92;100398.69;5044739;28;20625;-85
2022/06/19 00:30:34;;;;;;;5.00;1.33;;;;;;;16.38;76.69;100349.41;5045943;28;20073;-85
2022/06/19 00:33:01;;;;;;;2.88;1.02;;;;;;;16.57;80.03;100415.03;5041642;28;20056;-85
2022/06/19 00:35:29;;;;;;;4.75;1.05;;;;;;;16.57;77.53;100393.91;5055623;28;20047;-85
2022/06/19 00:37:56;;;;;;;3.28;1.13;;;;;;;16.71;78.10;100400.91;5037315;28;20093;-85
2022/06/19 00:40:26;;;;;;;6.13;1.30;;;;;;;16.30;78.94;100373.69;5052141;28;20464;-85
2022/06/19 00:42:53;;;;;;;8.63;1.40;;;;;;;16.22;84.13;100409.50;5037738;28;20060;-84
2022/06/19 00:45:30;;;;;;;4.53;1.23;;;;;;;15.98;88.43;100390.84;5044876;28;20171;-85
2022/06/19 00:47:59;;;;;;;4.85;1.15;;;;;;;16.43;86.74;100416.00;5055581;28;20059;-85
2022/06/19 00:50:29;;;;;;;4.00;1.08;;;;;;;16.57;85.14;100419.50;5053302;28;20049;-85
2022/06/19 00:52:57;;;;;;;8.27;1.88;;;;;;;16.00;87.60;100358.09;5036243;28;20045;-85
2022/06/19 00:55:32;;;;;;;8.75;1.40;;;;;;;16.48;89.12;100426.25;5054070;28;20041;-85
2022/06/19 00:58:06;;;;;;;9.10;1.13;;;;;;;16.17;89.35;100386.03;5055974;28;20554;-85
2022/06/19 01:00:33;;;;;;;6.55;1.25;;;;;;;16.54;88.47;100427.63;5051786;28;20045;-84
2022/06/19 01:03:14;;;;;;;4.40;1.20;;;;;;;16.40;90.05;100416.19;5034259;28;20060;-85
2022/06/19 01:05:44;;;;;;;4.40;1.23;;;;;;;15.92;94.36;100389.47;5042459;28;20045;-85
2022/06/19 01:08:12;;;;;;;6.18;1.40;;;;;;;16.32;95.27;100421.16;5053640;28;20048;-85
2022/06/19 01:10:42;;;;;;;4.85;1.35;;;;;;;16.30;91.88;100386.06;5049973;28;20056;-85
2022/06/19 01:13:11;;;;;;;4.72;1.08;;;;;;;16.51;91.76;100399.63;5046107;28;20076;-84
2022/06/19 01:15:39;;;;;;;5.20;1.25;;;;;;;16.39;92.49;100405.72;5053712;28;20049;-84
2022/06/19 01:18:08;;;;;;;4.43;1.17;;;;;;;16.12;94.43;100388.97;5054869;28;20071;-85
2022/06/19 01:20:37;;;;;;;6.68;1.52;;;;;;;16.65;91.84;100418.03;5056166;28;20049;-84
2022/06/19 01:23:29;;;;;;;4.75;1.10;;;;;;;16.32;96.83;100422.00;5053701;28;20049;-85
2022/06/19 01:25:56;;;;;;;5.07;1.10;;;;;;;15.89;99.96;100373.81;5053426;28;20084;-85
2022/06/19 01:28:46;;;;;;;5.65;1.13;;;;;;;16.19;95.59;100339.25;5053553;28;20051;-85
2022/06/19 01:31:19;;;;;;;5.60;1.40;;;;;;;16.59;95.10;100410.53;5048575;28;20407;-85
2022/06/19 01:33:51;;;;;;;;;;;;;;;16.80;93.23;100418.78;5046496;28;20076;-85
2022/06/19 01:36:21;;;;;;;4.63;1.33;;;;;;;15.60;100.00;100386.22;5053181;28;19927;-85
2022/06/19 01:38:50;;;;;;;6.55;1.60;;;;;;;15.22;100.00;100387.72;5055080;28;20045;-85
2022/06/19 01:41:36;;;;;;;3.97;1.20;;;;;;;15.73;100.00;100387.13;5053303;28;20397;-85
2022/06/19 01:44:04;;;;;;;8.73;1.50;;;;;;;15.54;100.00;100383.03;5054884;28;20135;-85
2022/06/19 01:46:30;;;;;;;6.65;1.48;;;;;;;15.26;100.00;100372.53;5054813;28;20080;-85
2022/06/19 01:48:58;;;;;;;6.50;1.55;;;;;;;15.39;100.00;100378.75;5054645;28;20052;-84
2022/06/19 01:51:25;;;;;;;5.05;1.20;;;;;;;15.64;100.00;100412.31;5069444;28;20047;-84
2022/06/19 01:54:04;;;;;;;5.97;1.30;;;;;;;15.61;100.00;100424.88;5053363;28;20145;-85
2022/06/19 01:56:31;;;;;;;6.88;1.50;;;;;;;15.66;100.00;100431.53;5053341;28;20056;-80
2022/06/19 01:59:05;;;;;;;5.60;1.38;;;;;;;15.80;100.00;100432.50;5054118;28;20056;-85
2022/06/19 02:01:35;;;;;;;3.08;0.98;;;;;;;16.08;100.00;100426.28;5045084;28;20051;-82
2022/06/19 02:04:05;;;;;;;4.95;1.40;;;;;;;15.73;100.00;100372.13;5052302;28;20055;-82
2022/06/19 02:06:46;;;;;;;6.57;1.50;;;;;;;15.63;100.00;100399.22;5052041;28;20056;-83
2022/06/19 02:09:15;;;;;;;6.03;1.55;;;;;;;15.23;100.00;100386.78;5048591;28;20479;-83
2022/06/19 02:11:42;;;;;;;5.10;1.27;;;;;;;15.42;100.00;100383.81;5044866;28;20056;-85
2022/06/19 02:14:11;;;;;;;5.28;1.30;;;;;;;15.82;100.00;100414.75;5042735;28;20384;-84
2022/06/19 02:16:40;;;;;;;5.75;1.10;;;;;;;15.96;100.00;100392.75;5050518;28;20053;-85
2022/06/19 02:19:08;;;;;;;3.92;1.10;;;;;;;15.64;100.00;100340.22;5052872;28;20056;-85
2022/06/19 02:21:43;;;;;;;5.93;1.15;;;;;;;16.07;100.00;100403.44;5040503;28;20128;-85
2022/06/19 02:24:12;;;;;;;4.95;1.40;;;;;;;15.59;100.00;100364.25;5036052;28;20584;-85
2022/06/19 02:26:41;;;;;;;5.00;1.25;;;;;;;16.02;100.00;100395.81;5053037;28;20449;-84
2022/06/19 02:29:11;;;;;;;5.28;1.40;;;;;;;15.34;100.00;100355.28;5053873;28;20053;-84
2022/06/19 02:31:41;;;;;;;7.00;1.60;;;;;;;15.34;100.00;100342.09;5052533;28;20070;-83
2022/06/19 02:34:19;;;;;;;4.07;1.20;;;;;;;15.93;100.00;100368.22;5052525;28;20063;-84
2022/06/19 02:36:51;;;;;;;3.83;1.00;;;;;;;16.12;100.00;100380.22;5032866;28;20042;-83
2022/06/19 02:39:27;;;;;;;8.13;2.35;;;;;;;16.02;100.00;100416.09;5032717;28;20057;-83
2022/06/19 02:42:28;;;;;;;7.60;1.67;;;;;;;15.73;100.00;100401.16;5034055;28;20506;-83
2022/06/19 02:44:57;;;;;;;6.90;1.30;;;;;;;15.67;100.00;100421.81;5032385;28;20054;-84
2022/06/19 02:47:27;;;;;;;7.10;1.52;;;;;;;15.48;100.00;100401.91;5032868;28;20456;-83
2022/06/19 02:49:54;;;;;;;4.00;1.25;;;;;;;15.56;100.00;100370.59;5049766;28;20468;-84
2022/06/19 02:52:21;;;;;;;4.90;1.35;;;;;;;15.73;100.00;100392.41;5068507;28;20068;-84
2022/06/19 02:54:48;;;;;;;2.67;0.80;;;;;;;15.56;100.00;100389.06;5049133;28;20055;-84
2022/06/19 02:57:16;;;;;;;7.57;1.65;;;;;;;15.26;100.00;100402.38;5052521;28;20419;-84
2022/06/19 02:59:44;;;;;;;5.00;1.33;;;;;;;15.08;100.00;100393.84;5068813;28;20143;-85
2022/06/19 03:02:12;;;;;;;5.68;1.33;;;;;;;15.36;100.00;100463.34;5051409;28;20048;-85
2022/06/19 03:04:45;;;;;;;10.73;1.60;;;;;;;15.30;100.00;100469.00;5051369;28;20052;-86
2022/06/19 03:07:12;;;;;;;8.45;1.40;;;;;;;14.67;100.00;100406.91;5052557;28;20417;-86
2022/06/19 03:09:39;;;;;;;5.50;1.00;;;;;;;14.30;100.00;100438.84;5042616;28;20132;-86
2022/06/19 03:12:07;;;;;;;5.40;1.80;;;;;;;13.94;100.00;100411.09;5047042;28;20045;-86
2022/06/19 03:14:40;;;;;;;4.35;1.05;;;;;;;13.55;100.00;100417.63;5051412;28;20068;-85
2022/06/19 03:17:07;;;;;;;4.00;1.10;;;;;;;13.70;100.00;100431.72;5053140;28;20475;-85
2022/06/19 03:19:34;;;;;;;5.35;1.20;;;;;;;13.84;100.00;100446.75;5052908;28;20051;-84
2022/06/19 03:22:02;;;;;;;5.22;1.35;;;;;;;14.13;100.00;100487.22;5049730;28;20550;-85
2022/06/19 03:24:29;;;;;;;5.43;1.23;;;;;;;13.23;100.00;100401.81;5038984;28;20051;-85
2022/06/19 03:26:55;;;;;;;5.05;1.30;;;;;;;13.69;100.00;100482.66;5051750;28;20071;-85
2022/06/19 03:29:22;;;;;;;9.65;1.60;;;;;;;13.34;100.00;100439.84;5071816;28;20053;-85
2022/06/19 03:31:49;;;;;;;6.28;1.27;;;;;;;12.98;100.00;100441.69;5054439;28;20677;-85
2022/06/19 03:34:16;;;;;;;11.00;1.67;;;;;;;13.63;100.00;100509.28;5056089;28;20050;-85
2022/06/19 03:36:43;;;;;;;5.10;1.33;;;;;;;13.58;100.00;100442.91;5063848;28;20459;-85
2022/06/19 03:39:10;;;;;;;3.92;1.20;;;;;;;13.64;100.00;100467.09;5062540;28;20403;-85
2022/06/19 03:41:38;;;;;;;4.53;1.23;;;;;;;13.85;100.00;100480.88;5049509;28;20049;-86
2022/06/19 03:44:05;;;;;;;13.02;1.95;;;;;;;13.45;100.00;100466.41;5056428;28;20127;-85
2022/06/19 03:46:32;;;;;;;6.32;1.40;;;;;;;14.11;100.00;100497.00;5055048;28;20128;-85
2022/06/19 03:48:59;;;;;;;6.93;1.60;;;;;;;13.68;100.00;100457.25;5056051;28;20103;-84
2022/06/19 03:51:27;;;;;;;6.97;1.65;;;;;;;14.18;100.00;100521.19;5054610;28;20051;-85
2022/06/19 03:53:54;;;;;;;5.00;1.60;;;;;;;14.36;100.00;100500.84;5054315;28;20715;-84
2022/06/19 03:56:28;;;;;;;5.18;1.17;;;;;;;14.48;100.00;100501.94;5055032;28;20540;-83
2022/06/19 03:58:55;;;;;;;5.38;1.33;;;;;;;14.45;100.00;100492.44;5055361;28;20049;-83
2022/06/19 04:01:25;;;;;;;8.52;1.90;;;;;;;14.54;100.00;100515.63;5053473;28;20068;-84
2022/06/19 04:03:55;;;;;;;6.00;1.70;;;;;;;14.20;100.00;100467.53;5035035;28;20080;-85
2022/06/19 04:06:26;;;;;;;8.30;1.95;;;;;;;14.00;100.00;100447.56;5049655;28;20135;-85
2022/06/19 04:08:53;;;;;;;5.68;1.33;;;;;;;14.42;100.00;100519.78;5041588;28;20049;-85
2022/06/19 04:11:22;;;;;;;8.25;1.70;;;;;;;14.24;100.00;100521.69;5054738;28;20048;-85
2022/06/19 04:13:48;;;;;;;5.35;1.40;;;;;;;14.44;100.00;100504.75;5055917;28;20402;-85
2022/06/19 04:16:21;;;;;;;5.90;1.83;;;;;;;14.51;100.00;100488.59;5070819;28;20045;-85
2022/06/19 04:18:50;;;;;;;7.30;1.40;;;;;;;13.73;100.00;100446.50;5055807;28;20061;-84
2022/06/19 04:21:25;;;;;;;7.50;1.58;;;;;;;14.29;100.00;100521.44;5054740;28;20083;-85
2022/06/19 04:23:56;;;;;;;5.55;1.55;;;;;;;14.15;100.00;100463.47;5050490;28;20160;-83
2022/06/19 04:26:25;;;;;;;5.75;1.48;;;;;;;13.77;100.00;100479.59;5046291;28;20049;-84
2022/06/19 04:28:53;;;;;;;12.65;1.55;;;;;;;13.97;100.00;100510.94;5055282;28;20055;-84
2022/06/19 04:31:19;;;;;;;5.93;1.45;;;;;;;13.75;100.00;100478.84;5052596;28;20051;-84
2022/06/19 04:33:46;;;;;;;5.28;1.25;;;;;;;14.46;100.00;100523.09;5053595;28;20125;-84
2022/06/19 04:36:16;;;;;;;5.43;1.35;;;;;;;13.75;100.00;100495.47;5053869;28;20052;-84
2022/06/19 04:38:44;;;;;;;6.78;1.42;;;;;;;14.00;100.00;100483.56;5053917;28;20049;-84
2022/06/19 04:41:32;;;;;;;5.88;1.45;;;;;;;14.28;100.00;100519.75;5048425;28;20161;-84
2022/06/19 04:44:00;;;;;;;4.97;1.30;;;;;;;14.11;100.00;100475.06;5053714;28;20045;-84
2022/06/19 04:46:27;;;;;;;8.50;1.98;;;;;;;14.09;100.00;100506.75;5053924;28;20489;-85
2022/06/19 04:48:54;;;;;;;6.70;1.58;;;;;;;14.23;100.00;100533.16;5050155;28;20049;-84
2022/06/19 04:51:21;;;;;;;4.50;1.15;;;;;;;14.55;100.00;100509.41;5046490;28;20430;-84
2022/06/19 04:53:48;;;;;;;6.63;1.38;;;;;;;14.12;100.00;100505.75;5053700;28;20041;-84
2022/06/19 04:56:18;;;;;;;7.63;1.40;;;;;;;13.97;100.00;100502.16;5052991;28;20044;-84
2022/06/19 04:58:45;;;;;;;5.97;1.27;;;;;;;14.24;100.00;100511.16;5033049;28;20073;-84
2022/06/19 05:01:24;;;;;;;8.10;1.77;;;;;;;14.27;100.00;100502.25;5046275;28;20066;-84
2022/06/19 05:03:53;;;;;;;9.43;2.00;;;;;;;14.01;100.00;100530.03;5041088;28;20056;-84
2022/06/19 05:06:20;;;;;;;10.55;2.58;;;;;;;13.39;100.00;100477.28;5052842;28;20048;-84
2022/06/19 05:08:47;;;;;;;7.10;1.50;;;;;;;13.55;100.00;100501.81;5039547;28;20043;-85
2022/06/19 05:11:14;;;;;;;5.75;1.55;;;;;;;13.79;100.00;100527.72;5050331;28;20080;-84
2022/06/19 05:13:41;;;;;;;7.72;1.77;;;;;;;14.13;100.00;100520.59;5039925;28;20060;-84
2022/06/19 05:16:12;;;;;;;7.72;1.90;;;;;;;13.15;100.00;100443.41;5053676;28;20049;-85
2022/06/19 05:18:39;;;;;;;6.57;1.60;;;;;;;13.81;100.00;100515.31;5070160;28;20152;-84
2022/06/19 05:21:07;;;;;;;5.30;1.40;;;;;;;13.88;100.00;100529.84;5067615;28;20094;-84
2022/06/19 05:23:36;;;;;;;6.25;1.80;;;;;;;13.50;100.00;100453.88;5052760;28;20497;-84
2022/06/19 05:26:10;;;;;;;8.18;1.60;;;;;;;13.73;100.00;100528.91;5041371;28;20055;-84
2022/06/19 05:28:37;;;;;;;7.85;1.98;;;;;;;13.48;100.00;100521.47;5039224;28;20467;-84
2022/06/19 05:31:04;;;;;;;5.35;1.42;;;;;;;13.72;100.00;100494.78;5053700;28;20143;-84
2022/06/19 05:33:32;;;;;;;8.00;1.83;;;;;;;13.63;100.00;100504.88;5048465;28;20051;-84
2022/06/19 05:35:59;;;;;;;7.53;1.65;;;;;;;13.77;100.00;100501.47;5065582;28;20386;-85
2022/06/19 05:38:27;;;;;;;6.93;1.70;;;;;;;13.35;100.00;100512.53;5052944;28;20129;-84
2022/06/19 05:40:56;;;;;;;10.98;2.22;;;;;;;13.38;100.00;100488.72;5049796;28;20136;-85
2022/06/19 05:43:25;;;;;;;6.05;1.70;;;;;;;13.59;100.00;100528.81;5052956;28;20522;-84
2022/06/19 05:46:01;;;;;;;6.55;2.13;;;;;;;13.13;100.00;100508.38;5054171;28;20053;-83
2022/06/19 05:48:29;;;;;;;9.80;2.78;;;;;;;13.38;100.00;100515.00;5039976;28;20407;-84
2022/06/19 05:50:58;;;;;;;7.32;1.80;;;;;;;13.91;100.00;100537.56;5046018;28;20061;-84
2022/06/19 05:53:26;;;;;;;10.30;1.60;;;;;;;13.52;100.00;100469.56;5049052;28;20543;-84
2022/06/19 05:55:54;;;;;;;11.63;2.15;;;;;;;13.79;100.00;100501.41;5045391;28;20049;-84
2022/06/19 05:58:20;;;;;;;9.73;2.05;;;;;;;14.10;100.00;100536.59;5066879;28;20052;-84
2022/06/19 06:00:47;;;;;;;7.03;1.67;;;;;;;13.82;100.00;100481.03;5050330;28;20115;-84
2022/06/19 06:03:16;;;;;;;7.30;1.75;;;;;;;14.35;100.00;100544.78;5053900;28;20148;-83
2022/06/19 06:05:44;;;;;;;10.30;1.92;;;;;;;14.07;100.00;100545.47;5052577;28;20128;-84
2022/06/19 06:08:12;;;;;;;9.63;1.92;;;;;;;13.85;100.00;100491.41;5049190;28;20053;-82
2022/06/19 06:10:49;;;;;;;8.30;2.03;;;;;;;14.08;100.00;100527.91;5038493;28;20103;-82
2022/06/19 06:13:16;;;;;;;7.95;1.80;;;;;;;14.05;100.00;100526.28;5044480;28;20056;-83
2022/06/19 06:15:45;;;;;;;5.72;1.95;;;;;;;13.94;100.00;100526.03;5043342;28;20479;-84
2022/06/19 06:18:13;;;;;;;7.20;1.80;;;;;;;13.39;100.00;100491.25;5049430;28;20053;-84
2022/06/19 06:20:40;;;;;;;9.15;1.75;;;;;;;13.98;100.00;100535.47;5042362;28;20045;-84
2022/06/19 06:23:07;;;;;;;7.68;1.73;;;;;;;13.96;100.00;100497.84;5044034;28;20506;-84
2022/06/19 06:25:34;;;;;;;9.27;2.03;;;;;;;14.15;100.00;100545.91;5041534;28;20056;-82
2022/06/19 06:28:01;;;;;;;7.68;2.15;;;;;;;14.02;100.00;100522.06;5055713;28;20432;-83
2022/06/19 06:30:28;;;;;;;6.93;1.67;;;;;;;13.68;100.00;100489.69;5041807;28;20140;-84
2022/06/19 06:33:03;;;;;;;10.68;2.72;;;;;;;13.65;100.00;100505.66;5048048;28;20057;-84
2022/06/19 06:35:30;;;;;;;11.23;2.10;;;;;;;14.05;100.00;100547.34;5042043;28;20451;-84
2022/06/19 06:38:00;;;;;;;9.45;1.73;;;;;;;14.40;100.00;100550.66;5040976;28;20131;-84
2022/06/19 06:40:27;;;;;;;8.15;1.52;;;;;;;14.12;100.00;100522.38;5046654;28;20077;-84
2022/06/19 06:42:55;;;;;;;8.20;1.63;;;;;;;14.28;100.00;100563.66;5043783;28;20079;-82
2022/06/19 06:45:22;;;;;;;6.65;1.80;;;;;;;14.42;100.00;100550.56;5046290;28;20076;-83
2022/06/19 06:47:49;;;;;;;6.25;1.50;;;;;;;14.52;100.00;100514.00;5044255;28;20050;-83
2022/06/19 06:50:16;;;;;;;9.02;1.98;;;;;;;14.77;100.00;100582.00;5046822;28;20592;-83
2022/06/19 06:52:43;;;;;;;3.88;1.50;;;;;;;14.38;100.00;100557.78;5035649;28;20051;-83
2022/06/19 06:55:10;;;;;;;10.02;1.77;;;;;;;14.56;100.00;100578.78;5052243;28;20059;-83
2022/06/19 06:57:37;;;;;;;9.25;1.90;;;;;;;13.96;100.00;100550.50;5047035;28;20132;-83
2022/06/19 07:00:06;;;;;;;9.20;1.80;;;;;;;14.47;100.00;100580.13;5045706;28;20509;-83
2022/06/19 07:02:33;;;;;;;9.05;1.88;;;;;;;13.98;100.00;100519.66;5042969;28;20131;-83
2022/06/19 07:04:59;;;;;;;7.85;1.70;;;;;;;14.04;100.00;100550.91;5050600;28;20900;-83
2022/06/19 07:07:26;;;;;;;7.13;1.67;;;;;;;14.05;100.00;100536.81;5043193;28;20047;-84
2022/06/19 07:09:53;;;;;;;5.65;1.40;;;;;;;13.97;100.00;100547.78;5061636;28;20062;-83
2022/06/19 07:12:20;;;;;;;4.57;1.42;;;;;;;14.07;100.00;100537.59;5045017;28;20041;-83
2022/06/19 07:14:46;;;;;;;6.32;1.45;;;;;;;14.36;100.00;100553.53;5063076;28;20041;-84
2022/06/19 07:17:13;;;;;;;6.28;1.38;;;;;;;14.14;100.00;100567.06;5052489;28;20451;-84
2022/06/19 07:19:40;;;;;;;9.55;1.83;;;;;;;14.12;100.00;100561.88;5050892;28;20098;-83
2022/06/19 07:22:12;;;;;;;5.28;1.42;;;;;;;14.80;100.00;100601.13;5049151;28;20106;-84
2022/06/19 07:24:39;;;;;;;5.28;1.35;;;;;;;14.93;100.00;100580.16;5049966;28;20099;-83
2022/06/19 07:27:06;;;;;;;3.97;1.17;;;;;;;15.50;100.00;100589.13;5056785;28;20050;-84
2022/06/19 07:29:32;;;;;;;5.80;1.33;;;;;;;14.83;100.00;100576.34;5046959;28;20052;-84
2022/06/19 07:31:59;;;;;;;7.20;1.33;;;;;;;14.88;100.00;100566.41;5039684;28;20049;-84
2022/06/19 07:34:28;;;;;;;6.10;1.30;;;;;;;15.10;100.00;100591.50;5049485;28;20049;-84
2022/06/19 07:36:59;;;;;;;7.25;1.30;;;;;;;15.25;100.00;100600.31;5044087;28;20045;-83
2022/06/19 07:39:25;;;;;;;6.90;1.58;;;;;;;15.03;100.00;100605.97;5050702;28;20406;-83
2022/06/19 07:41:53;;;;;;;6.38;1.40;;;;;;;15.35;100.00;100609.34;5036178;28;20049;-84
2022/06/19 07:44:22;;;;;;;4.88;1.38;;;;;;;15.14;100.00;100601.78;5045300;28;20574;-83
2022/06/19 07:52:21;;;;;;;4.90;1.40;;;;;;;15.74;100.00;100637.81;5050440;28;20111;-83
2022/06/19 07:54:48;;;;;;;5.60;1.30;;;;;;;15.55;100.00;100624.84;5052132;28;20064;-83
2022/06/19 07:57:18;;;;;;;7.43;1.58;;;;;;;15.80;100.00;100625.19;5051089;28;20055;-83
2022/06/19 07:59:45;;;;;;;6.40;1.25;;;;;;;15.81;100.00;100614.53;5066246;28;20053;-83
2022/06/19 08:02:14;;;;;;;6.72;1.55;;;;;;;15.72;100.00;100659.94;5049186;28;20052;-83
2022/06/19 08:04:41;;;;;;;4.80;1.35;;;;;;;15.15;100.00;100652.75;5040597;28;20049;-82
2022/06/19 08:07:15;;;;;;;5.43;1.58;;;;;;;15.16;100.00;100667.63;5048417;28;20045;-83
2022/06/19 08:09:42;;;;;;;7.82;1.50;;;;;;;15.22;100.00;100671.69;5041748;28;20049;-82
2022/06/19 08:12:10;;;;;;;6.35;1.35;;;;;;;15.27;100.00;100673.13;5047746;28;20045;-82
2022/06/19 08:14:38;;;;;;;5.13;1.20;;;;;;;15.00;100.00;100667.66;5041283;28;20491;-82
2022/06/19 08:17:05;;;;;;;5.25;1.73;;;;;;;14.75;100.00;100661.16;5047089;28;20475;-82
2022/06/19 08:19:32;;;;;;;4.32;1.20;;;;;;;14.75;100.00;100674.31;5043115;28;20050;-82
2022/06/19 08:21:58;;;;;;;6.68;1.35;;;;;;;14.44;100.00;100647.00;5048793;28;20084;-82
2022/06/19 08:24:25;;;;;;;6.68;1.35;;;;;;;14.66;100.00;100640.59;5054876;28;20049;-82
2022/06/19 08:27:02;;;;;;;4.25;1.20;;;;;;;14.62;100.00;100686.47;5047710;28;20049;-82
2022/06/19 08:29:28;;;;;;;4.47;1.20;;;;;;;15.42;100.00;100650.25;5070292;28;20398;-82
2022/06/19 08:31:56;;;;;;;3.63;1.40;;;;;;;14.95;100.00;100638.06;5039198;28;20049;-83
2022/06/19 08:34:27;;;;;;;6.50;1.52;;;;;;;15.57;100.00;100651.16;5052823;28;20056;-83
2022/06/19 08:36:54;;;;;;;5.53;1.58;;;;;;;15.46;100.00;100695.81;5046624;28;20053;-83
2022/06/19 08:39:25;;;;;;;6.63;1.75;;;;;;;15.45;100.00;100694.09;5048286;28;20051;-83
2022/06/19 08:42:26;;;;;;;7.00;1.58;;;;;;;15.71;100.00;100689.91;5048969;28;20056;-83
2022/06/19 08:45:08;;;;;;;6.40;1.65;;;;;;;15.90;100.00;100694.94;5045179;28;20057;-83
2022/06/19 08:47:57;;;;;;;9.02;2.15;;;;;;;15.50;100.00;100697.31;5050485;28;20045;-83
2022/06/19 08:50:57;;;;;;;11.32;2.13;;;;;;;15.70;100.00;100717.25;5064797;28;20707;-83
2022/06/19 08:53:27;;;;;;;9.55;2.00;;;;;;;15.45;100.00;100715.19;5057895;28;20475;-82
2022/06/19 08:56:10;;;;;;;7.55;1.88;;;;;;;15.65;100.00;100698.19;5053502;28;20056;-82
2022/06/19 08:59:06;;;;;;;7.13;2.05;;;;;;;15.41;100.00;100711.91;5046694;28;20052;-84
2022/06/19 09:01:57;;;;;;;7.15;1.92;;;;;;;15.03;100.00;100643.75;5050986;28;20395;-84
2022/06/19 09:07:43;;;;;;;5.93;1.70;;;;;;;15.32;100.00;100723.00;5047158;28;20060;-83
2022/06/19 09:10:19;;;;;;;7.45;1.80;;;;;;;15.15;100.00;100724.78;5050879;28;20044;-83
2022/06/19 09:12:55;;;;;;;7.07;1.92;;;;;;;15.44;100.00;100726.69;5052822;28;20053;-83
2022/06/19 09:15:55;;;;;;;7.55;1.73;;;;;;;15.66;100.00;100728.94;5045482;28;20501;-83
2022/06/19 09:18:38;;;;;;;10.18;1.70;;;;;;;15.56;100.00;100749.72;5059575;28;20044;-83
2022/06/19 09:21:12;;;;;;;6.97;1.55;;;;;;;14.40;100.00;100668.34;5040591;28;20063;-83
2022/06/19 09:23:57;;;;;;;13.80;2.20;;;;;;;14.77;100.00;100740.97;5050249;28;20514;-83
2022/06/19 09:26:34;;;;;;;8.18;2.00;;;;;;;15.04;100.00;100727.19;5050532;28;20045;-83
2022/06/19 09:29:16;;;;;;;9.18;1.95;;;;;;;15.16;100.00;100744.97;5046823;28;20045;-82
2022/06/19 09:31:55;;;;;;;8.98;1.75;;;;;;;14.92;100.00;100726.09;5044368;28;20128;-83
2022/06/19 09:34:36;;;;;;;9.20;1.88;;;;;;;15.18;100.00;100748.34;5048396;28;20281;-82
2022/06/19 09:37:33;;;;;;;9.30;2.03;;;;;;;14.94;100.00;100728.63;5051034;28;20059;-82
2022/06/19 09:40:15;;;;;;;10.68;1.92;;;;;;;14.83;100.00;100757.38;5050077;28;20068;-82
2022/06/19 09:42:50;;;;;;;4.80;1.48;;;;;;;14.66;100.00;100708.22;5050797;28;20407;-83
2022/06/19 09:45:20;;;;;;;8.02;2.20;;;;;;;14.46;100.00;100688.22;5050766;28;20513;-83
2022/06/19 09:48:21;;;;;;;6.82;1.92;;;;;;;15.71;100.00;100758.53;5051390;28;20045;-83
2022/06/19 09:51:25;;;;;;;4.63;1.52;;;;;;;15.15;100.00;100769.63;5047313;28;20045;-83
2022/06/19 09:54:00;;;;;;;5.85;1.65;;;;;;;14.80;100.00;100777.72;5051145;28;20057;-83
2022/06/19 09:57:09;;;;;;;7.22;1.70;;;;;;;14.72;100.00;100774.63;5065166;28;20041;-83
2022/06/19 09:59:51;;;;;;;6.55;1.80;;;;;;;14.91;100.00;100774.50;5047477;28;20055;-83
2022/06/19 10:02:32;;;;;;;8.45;1.83;;;;;;;15.01;100.00;100764.25;5047700;28;20049;-83
2022/06/19 10:05:15;;;;;;;6.80;1.65;;;;;;;15.22;100.00;100783.31;5050624;28;20056;-83
2022/06/19 10:07:51;;;;;;;8.32;1.85;;;;;;;14.78;100.00;100763.78;5046803;28;20129;-84
2022/06/19 10:10:28;;;;;;;8.95;2.08;;;;;;;15.08;100.00;100751.59;5051664;28;20054;-83
2022/06/19 10:12:58;;;;;;;5.90;1.75;;;;;;;15.45;100.00;100739.78;5043011;28;20055;-83
2022/06/19 10:15:37;;;;;;;7.32;2.28;;;;;;;15.46;100.00;100780.25;5053605;28;20053;-83
2022/06/19 10:18:12;;;;;;;8.95;2.20;;;;;;;15.16;100.00;100789.78;5051082;28;20376;-84
2022/06/19 10:20:48;;;;;;;8.07;1.90;;;;;;;15.59;100.00;100802.31;5047269;28;20049;-84
2022/06/19 10:23:42;;;;;;;6.90;1.83;;;;;;;15.56;100.00;100761.16;5043459;28;20045;-84
2022/06/19 10:26:34;;;;;;;9.23;2.47;;;;;;;15.26;100.00;100808.56;5051169;28;20388;-84
2022/06/19 10:29:27;;;;;;;8.35;2.25;;;;;;;15.28;100.00;100798.81;5050462;28;20483;-83
2022/06/19 10:32:00;;;;;;;13.73;2.65;;;;;;;14.87;100.00;100814.28;5043134;28;21078;-84
2022/06/19 10:34:49;;;;;;;12.32;3.13;;;;;;;14.85;100.00;100814.34;5051631;28;20399;-83
2022/06/19 10:37:23;;;;;;;14.13;2.65;;;;;;;15.22;100.00;100777.19;5050143;28;20049;-84
2022/06/19 10:40:18;;;;;;;12.55;3.40;;;;;;;15.14;100.00;100806.66;5051367;28;20422;-84
2022/06/19 10:43:05;;;;;;;12.60;3.10;;;;;;;15.01;100.00;100814.38;5063155;28;20048;-84
2022/06/19 10:45:56;;;;;;;9.20;2.53;;;;;;;15.31;100.00;100819.72;5067101;28;20059;-84
2022/06/19 10:48:43;;;;;;;10.98;2.70;;;;;;;14.60;100.00;100778.78;5064957;28;20048;-83
2022/06/19 10:51:38;;;;;;;15.45;3.30;;;;;;;14.72;100.00;100826.50;5047532;28;20049;-83
2022/06/19 10:54:19;;;;;;;11.82;3.05;;;;;;;14.32;100.00;100795.16;5064724;28;20048;-82
2022/06/19 10:57:10;;;;;;;19.70;3.78;;;;;;;14.62;100.00;100863.00;5051235;28;20151;-83
2022/06/19 10:59:39;;;;;;;9.18;2.85;;;;;;;14.42;100.00;100822.72;5049854;28;20053;-82
2022/06/19 11:06:03;;;;;;;9.70;2.80;;;;;;;14.31;100.00;100806.63;5035140;28;20082;-83
2022/06/19 11:08:35;;;;;;;14.10;2.88;;;;;;;14.80;100.00;100827.78;5041011;28;20067;-83
2022/06/19 11:11:05;;;;;;;9.60;3.15;;;;;;;14.50;100.00;100842.53;5049199;28;20130;-83
2022/06/19 11:13:56;;;;;;;10.57;2.67;;;;;;;14.25;100.00;100878.03;5049493;28;20055;-83
2022/06/19 11:16:24;;;;;;;11.60;2.67;;;;;;;13.68;100.00;100860.66;5043206;28;20053;-83
2022/06/19 11:18:54;;;;;;;10.90;3.28;;;;;;;14.02;100.00;100859.03;5049079;28;20087;-83
2022/06/19 11:21:40;;;;;;;15.68;3.83;;;;;;;13.28;100.00;100799.44;5031846;28;20096;-83
2022/06/19 11:24:26;;;;;;;11.77;3.58;;;;;;;13.70;100.00;100875.53;5050607;28;20049;-84
2022/06/19 11:26:56;;;;;;;13.07;3.13;;;;;;;14.00;100.00;100825.78;5066342;28;20052;-83
2022/06/19 11:29:27;;;;;;;15.23;3.10;;;;;;;14.32;100.00;100863.63;5048692;28;20132;-84
2022/06/19 11:32:08;;;;;;;11.20;3.30;;;;;;;13.89;100.00;100872.84;5051889;28;20119;-84
2022/06/19 11:34:48;;;;;;;12.85;3.65;;;;;;;14.19;100.00;100837.09;5051686;28;20045;-84
2022/06/19 11:37:30;;;;;;;13.02;2.95;;;;;;;14.97;100.00;100870.84;5047835;28;20083;-84
2022/06/19 11:40:05;;;;;;;10.90;2.80;;;;;;;15.42;100.00;100878.94;5053684;28;20055;-84
2022/06/19 11:42:36;;;;;;;12.90;3.55;;;;;;;15.25;100.00;100817.44;5051685;28;20059;-84
2022/06/19 11:45:15;;;;;;;13.88;3.03;;;;;;;15.66;100.00;100874.09;5066526;28;20132;-84
2022/06/19 11:47:58;;;;;;;14.90;3.22;;;;;;;15.77;100.00;100868.22;5051032;28;20045;-85
2022/06/19 11:50:33;;;;;;;11.07;3.65;;;;;;;15.29;100.00;100881.41;5052185;28;20067;-85
2022/06/19 11:53:06;;;;;;;12.02;3.00;;;;;;;15.31;100.00;100879.53;5053261;28;20424;-84